Time;durP1;ratioP1;P1;durP2;ratioP2;P2;SDS_P1;SDS_P2;PMS_P1;PMS_P2;Temp;Humidity;BMP_temperature;BMP_pressure;BME280_temperature;BME280_humidity;BME280_pressure;Samples;Min_cycle;Max_cycle;Signal;HPM_P1;HPM_P2
2022/04/15 00:00:45;;;;;;;10.63;6.80;;;;;;;7.65;100.00;93564.50;2106723;28;20527;-84
2022/04/15 00:01:46;;;;;;;8.98;6.78;;;;;;;7.59;100.00;93558.81;2107151;28;20408;-82
2022/04/15 00:02:48;;;;;;;8.55;6.00;;;;;;;7.59;100.00;93561.47;2115664;28;20523;-82
2022/04/15 00:03:50;;;;;;;8.75;6.40;;;;;;;7.54;100.00;93567.94;2115519;28;20080;-81
2022/04/15 00:04:51;;;;;;;12.98;6.78;;;;;;;7.57;100.00;93556.53;2107325;28;20059;-81
2022/04/15 00:05:53;;;;;;;6.90;5.95;;;;;;;7.57;100.00;93563.75;2106998;28;20567;-82
2022/04/15 00:06:54;;;;;;;9.10;6.78;;;;;;;7.55;100.00;93561.50;2107565;28;20099;-83
2022/04/15 00:07:55;;;;;;;8.90;6.65;;;;;;;7.52;100.00;93562.25;2107026;28;20032;-82
2022/04/15 00:08:56;;;;;;;9.07;6.28;;;;;;;7.50;100.00;93572.50;2107162;28;20016;-81
2022/04/15 00:09:57;;;;;;;6.95;5.97;;;;;;;7.53;100.00;93574.41;2113389;28;20054;-82
2022/04/15 00:10:58;;;;;;;8.90;6.38;;;;;;;7.54;100.00;93573.25;2100443;28;20020;-82
2022/04/15 00:12:06;;;;;;;7.68;6.28;;;;;;;7.51;100.00;93576.72;2106611;28;20053;-83
2022/04/15 00:13:11;;;;;;;9.00;6.20;;;;;;;7.50;100.00;93569.09;2111490;27;20059;-82
2022/04/15 00:14:12;;;;;;;7.80;6.18;;;;;;;7.51;100.00;93574.03;2116628;27;20031;-81
2022/04/15 00:15:15;;;;;;;8.27;6.90;;;;;;;7.68;100.00;93571.69;2115264;28;20050;-83
2022/04/15 00:16:16;;;;;;;10.50;6.65;;;;;;;7.63;100.00;93569.44;2107280;28;20488;-82
2022/04/15 00:17:17;;;;;;;8.65;6.28;;;;;;;7.43;100.00;93571.78;2100891;28;20044;-84
2022/04/15 00:18:21;;;;;;;8.65;6.43;;;;;;;7.45;100.00;93566.84;2098653;28;20278;-81
2022/04/15 00:19:23;;;;;;;7.90;5.82;;;;;;;7.43;100.00;93575.19;2107504;28;20028;-82
2022/04/15 00:20:26;;;;;;;7.35;6.05;;;;;;;7.48;100.00;93572.16;2098612;28;20016;-83
2022/04/15 00:21:27;;;;;;;6.90;6.20;;;;;;;7.56;100.00;93572.88;2107019;28;20031;-82
2022/04/15 00:22:28;;;;;;;8.88;6.50;;;;;;;7.54;100.00;93573.25;2098600;28;20116;-81
2022/04/15 00:23:30;;;;;;;8.95;6.00;;;;;;;7.52;100.00;93575.56;2098485;28;20021;-83
2022/04/15 00:24:31;;;;;;;8.07;6.40;;;;;;;7.54;100.00;93569.84;2098582;28;20024;-84
2022/04/15 00:25:32;;;;;;;10.02;6.13;;;;;;;7.55;100.00;93574.78;2098466;28;20086;-82
2022/04/15 00:26:33;;;;;;;7.50;6.70;;;;;;;7.52;100.00;93572.91;2098498;28;20013;-83
2022/04/15 00:27:34;;;;;;;12.25;6.45;;;;;;;7.48;100.00;93571.38;2098469;28;20024;-82
2022/04/15 00:28:35;;;;;;;11.63;6.35;;;;;;;7.50;100.00;93572.50;2106657;28;20015;-81
2022/04/15 00:29:37;;;;;;;8.98;6.53;;;;;;;7.55;100.00;93574.78;2106778;28;20519;-80
2022/04/15 00:30:38;;;;;;;9.15;6.30;;;;;;;7.60;100.00;93576.31;2098063;28;20044;-82
2022/04/15 00:31:39;;;;;;;11.02;6.43;;;;;;;7.52;100.00;93578.22;2097945;28;20047;-83
2022/04/15 00:32:41;;;;;;;6.90;5.90;;;;;;;7.57;100.00;93579.72;2089508;28;20363;-81
2022/04/15 00:33:42;;;;;;;9.85;6.65;;;;;;;7.57;100.00;93577.81;2097990;28;20027;-85
2022/04/15 00:34:43;;;;;;;12.23;6.32;;;;;;;7.56;100.00;93573.66;2101979;28;20370;-83
2022/04/15 00:35:44;;;;;;;7.80;6.38;;;;;;;7.52;100.00;93572.91;2101214;28;20062;-82
2022/04/15 00:36:45;;;;;;;9.05;6.47;;;;;;;7.50;100.00;93571.75;2105290;28;20048;-82
2022/04/15 00:37:46;;;;;;;8.13;6.63;;;;;;;7.48;100.00;93582.03;2105686;28;20020;-83
2022/04/15 00:38:47;;;;;;;10.98;6.53;;;;;;;7.45;100.00;93574.81;2094312;28;20048;-85
2022/04/15 00:39:49;;;;;;;10.80;6.25;;;;;;;7.47;100.00;93575.19;2097563;28;20689;-81
2022/04/15 00:40:50;;;;;;;8.82;6.25;;;;;;;7.53;100.00;93571.75;2098259;28;20116;-84
2022/04/15 00:41:51;;;;;;;7.90;5.88;;;;;;;7.55;100.00;93572.13;2099567;28;20021;-82
2022/04/15 00:42:52;;;;;;;7.63;6.28;;;;;;;7.60;100.00;93575.53;2106685;28;20070;-83
2022/04/15 00:43:58;;;;;;;11.93;7.03;;;;;;;7.74;100.00;93572.84;2106757;28;20024;-81
2022/04/15 00:45:00;;;;;;;8.60;6.68;;;;;;;7.73;100.00;93569.41;2107105;28;20027;-84
2022/04/15 00:46:08;;;;;;;10.90;6.53;;;;;;;7.80;100.00;93576.59;2098466;28;20388;-83
2022/04/15 00:47:17;;;;;;;8.45;6.30;;;;;;;7.81;100.00;93578.91;2103455;28;20436;-82
2022/04/15 00:48:19;;;;;;;8.50;6.13;;;;;;;7.76;100.00;93573.19;2104009;28;20066;-81
2022/04/15 00:49:20;;;;;;;7.13;6.13;;;;;;;7.69;100.00;93573.22;2098633;28;20072;-82
2022/04/15 00:50:29;;;;;;;8.10;6.25;;;;;;;7.66;100.00;93566.78;2106701;28;20092;-83
2022/04/15 00:51:34;;;;;;;9.50;5.73;;;;;;;7.68;100.00;93572.47;2108942;27;20035;-81
2022/04/15 00:52:39;;;;;;;6.13;5.40;;;;;;;7.75;100.00;93569.03;2107118;28;20438;-83
2022/04/15 00:53:42;;;;;;;8.23;5.88;;;;;;;7.79;100.00;93567.09;2099580;28;20032;-83
2022/04/15 00:54:45;;;;;;;7.50;5.50;;;;;;;7.80;100.00;93566.72;2099174;28;20037;-82
2022/04/15 00:55:48;;;;;;;6.63;5.68;;;;;;;7.85;100.00;93572.78;2098415;28;20116;-83
2022/04/15 00:56:52;;;;;;;7.85;5.95;;;;;;;7.82;100.00;93575.09;2098943;28;20082;-82
2022/04/15 00:57:59;;;;;;;7.43;5.47;;;;;;;7.76;100.00;93570.53;2098714;28;20489;-83
2022/04/15 00:59:09;;;;;;;7.32;5.25;;;;;;;7.74;100.00;93567.50;2099859;28;20027;-84
2022/04/15 01:00:13;;;;;;;10.30;5.80;;;;;;;7.78;100.00;93576.25;2099092;28;20029;-82
2022/04/15 01:01:16;;;;;;;6.97;5.28;;;;;;;7.81;100.00;93573.56;2098778;28;20020;-81
2022/04/15 01:02:18;;;;;;;6.30;5.55;;;;;;;7.82;100.00;93571.66;2098599;28;20029;-84
2022/04/15 01:03:21;;;;;;;6.25;5.50;;;;;;;7.79;100.00;93573.19;2098582;28;20020;-81
2022/04/15 01:04:23;;;;;;;7.50;6.13;;;;;;;7.79;100.00;93570.53;2103973;28;20553;-82
2022/04/15 01:05:25;;;;;;;8.80;5.63;;;;;;;7.80;100.00;93572.03;2106446;28;20024;-83
2022/04/15 01:06:30;;;;;;;7.43;5.60;;;;;;;7.79;100.00;93572.44;2089924;28;20766;-84
2022/04/15 01:07:37;;;;;;;6.68;5.57;;;;;;;7.82;100.00;93572.41;2099328;28;20835;-83
2022/04/15 01:08:41;;;;;;;7.78;5.25;;;;;;;7.90;100.00;93567.06;2099015;28;20032;-84
2022/04/15 01:09:44;;;;;;;9.25;5.85;;;;;;;7.92;100.00;93567.44;2090794;28;20067;-83
2022/04/15 01:10:47;;;;;;;10.80;5.22;;;;;;;7.93;100.00;93560.97;2098382;28;20068;-83
2022/04/15 01:11:50;;;;;;;8.00;5.72;;;;;;;7.95;100.00;93561.34;2098036;28;20070;-84
2022/04/15 01:12:56;;;;;;;7.30;5.10;;;;;;;7.97;100.00;93567.78;2097833;28;20016;-82
2022/04/15 01:13:59;;;;;;;7.65;5.60;;;;;;;7.95;100.00;93567.44;2099621;28;20028;-83
2022/04/15 01:15:02;;;;;;;7.47;5.35;;;;;;;7.94;100.00;93560.56;2098441;28;20076;-82
2022/04/15 01:16:04;;;;;;;6.20;4.95;;;;;;;7.88;100.00;93561.38;2090231;28;20033;-81
2022/04/15 01:17:05;;;;;;;6.72;5.03;;;;;;;7.98;100.00;93565.88;2094156;28;20024;-83
2022/04/15 01:18:07;;;;;;;7.55;5.07;;;;;;;8.10;100.00;93567.34;2106502;28;20020;-82
2022/04/15 01:19:08;;;;;;;8.82;5.72;;;;;;;8.06;100.00;93572.69;2098346;28;20036;-84
2022/04/15 01:20:16;;;;;;;6.68;5.80;;;;;;;8.00;100.00;93563.59;2098125;28;20562;-81
2022/04/15 01:21:17;;;;;;;7.18;5.00;;;;;;;7.92;100.00;93565.53;2100076;28;20056;-82
2022/04/15 01:22:23;;;;;;;7.63;5.63;;;;;;;7.87;100.00;93557.19;2098038;28;20025;-82
2022/04/15 01:23:24;;;;;;;8.82;5.07;;;;;;;7.94;100.00;93557.91;2104742;28;20020;-81
2022/04/15 01:24:25;;;;;;;7.90;5.50;;;;;;;7.96;100.00;93555.63;2097457;28;20156;-83
2022/04/15 01:25:26;;;;;;;9.15;5.63;;;;;;;7.90;100.00;93557.19;2098145;28;20016;-84
2022/04/15 01:26:27;;;;;;;6.75;5.13;;;;;;;7.87;100.00;93559.84;2097953;28;20094;-82
2022/04/15 01:27:33;;;;;;;7.07;5.57;;;;;;;7.83;100.00;93560.63;2106419;28;20028;-82
2022/04/15 01:28:34;;;;;;;7.20;5.65;;;;;;;7.85;100.00;93559.47;2114677;28;20068;-82
2022/04/15 01:29:38;;;;;;;8.38;5.57;;;;;;;7.85;100.00;93548.81;2106381;28;20020;-82
2022/04/15 01:30:39;;;;;;;5.68;4.85;;;;;;;7.86;100.00;93556.44;2114377;28;20047;-82
2022/04/15 01:31:40;;;;;;;6.78;5.10;;;;;;;7.81;100.00;93551.50;2097717;28;20021;-84
2022/04/15 01:32:41;;;;;;;12.00;5.72;;;;;;;7.87;100.00;93551.88;2098069;28;20017;-82
2022/04/15 01:33:42;;;;;;;5.47;4.75;;;;;;;7.86;100.00;93558.31;2098300;28;20021;-83
2022/04/15 01:34:43;;;;;;;5.90;5.32;;;;;;;7.84;100.00;93553.41;2106298;28;20031;-82
2022/04/15 01:35:44;;;;;;;5.18;4.55;;;;;;;7.85;100.00;93556.81;2097815;28;20025;-83
2022/04/15 01:36:45;;;;;;;8.48;5.78;;;;;;;7.89;100.00;93557.56;2105802;28;20503;-81
2022/04/15 01:37:47;;;;;;;6.80;6.10;;;;;;;7.87;100.00;93557.19;2114603;28;20023;-82
2022/04/15 01:38:48;;;;;;;8.63;6.25;;;;;;;7.77;100.00;93550.75;2106500;28;20157;-82
2022/04/15 01:39:50;;;;;;;8.55;5.95;;;;;;;7.72;100.00;93551.16;2114804;28;20019;-83
2022/04/15 01:40:57;;;;;;;7.90;5.50;;;;;;;7.73;100.00;93550.78;2114639;28;20525;-82
2022/04/15 01:41:58;;;;;;;7.22;5.68;;;;;;;7.69;100.00;93551.94;2099479;28;20134;-85
2022/04/15 01:42:59;;;;;;;8.80;5.80;;;;;;;7.70;100.00;93559.53;2098004;28;20028;-81
2022/04/15 01:44:06;;;;;;;6.97;5.60;;;;;;;7.70;100.00;93556.88;2106301;28;20031;-82
2022/04/15 01:45:08;;;;;;;6.90;6.10;;;;;;;7.68;100.00;93558.41;2099658;28;20513;-82
2022/04/15 01:46:09;;;;;;;11.15;6.22;;;;;;;7.62;100.00;93554.63;2098409;28;20488;-81
2022/04/15 01:47:11;;;;;;;7.03;5.80;;;;;;;7.59;100.00;93564.13;2097707;28;20031;-84
2022/04/15 01:48:12;;;;;;;6.13;5.35;;;;;;;7.63;100.00;93567.53;2105939;28;20077;-81
2022/04/15 01:49:13;;;;;;;8.77;5.88;;;;;;;7.63;100.00;93564.88;2098122;28;20031;-82
2022/04/15 01:50:14;;;;;;;7.97;5.57;;;;;;;7.61;100.00;93564.50;2097966;28;20496;-83
2022/04/15 01:51:15;;;;;;;9.13;5.63;;;;;;;7.56;100.00;93562.25;2097677;28;20024;-82
2022/04/15 01:52:16;;;;;;;7.85;6.45;;;;;;;7.55;100.00;93563.38;2097747;28;20024;-81
2022/04/15 01:53:17;;;;;;;6.25;5.65;;;;;;;7.55;100.00;93566.81;2097820;28;20031;-82
2022/04/15 01:54:18;;;;;;;7.93;5.38;;;;;;;7.63;100.00;93572.84;2106272;28;20039;-82
2022/04/15 01:55:18;;;;;;;5.78;5.25;;;;;;;7.60;100.00;93568.31;2106235;28;20024;-82
2022/04/15 01:56:19;;;;;;;9.98;5.82;;;;;;;7.57;100.00;93564.50;2097782;28;20024;-81
2022/04/15 01:57:20;;;;;;;7.43;5.75;;;;;;;7.44;100.00;93571.41;2106172;28;20024;-84
2022/04/15 01:58:22;;;;;;;6.28;5.63;;;;;;;7.34;100.00;93566.88;2106151;28;20032;-85
2022/04/15 01:59:24;;;;;;;6.15;5.13;;;;;;;7.31;100.00;93568.38;2114672;28;20030;-85
2022/04/15 02:00:25;;;;;;;6.82;5.20;;;;;;;7.28;100.00;93571.03;2097650;28;20016;-84
2022/04/15 02:01:28;;;;;;;7.43;4.90;;;;;;;7.22;100.00;93569.94;2097982;28;20021;-85
2022/04/15 02:02:29;;;;;;;5.38;4.82;;;;;;;7.28;100.00;93563.06;2098284;28;20028;-83
2022/04/15 02:03:29;;;;;;;8.00;5.03;;;;;;;7.29;100.00;93568.03;2097936;28;20405;-83
2022/04/15 02:04:30;;;;;;;5.57;4.65;;;;;;;7.26;100.00;93568.03;2114611;27;20035;-83
2022/04/15 02:05:31;;;;;;;6.80;4.97;;;;;;;7.27;100.00;93566.88;2123093;27;20065;-80
2022/04/15 02:06:32;;;;;;;9.07;5.55;;;;;;;7.22;100.00;93565.38;2114426;28;20023;-84
2022/04/15 02:07:33;;;;;;;5.03;4.53;;;;;;;7.13;100.00;93569.56;2114422;28;20484;-81
2022/04/15 02:08:34;;;;;;;7.63;4.93;;;;;;;7.18;100.00;93569.94;2097833;28;20078;-85
2022/04/15 02:09:36;;;;;;;5.25;4.60;;;;;;;7.16;100.00;93566.16;2105126;28;20019;-81
2022/04/15 02:12:41;;;;;;;;;;;;;;;7.22;100.00;93572.59;2133523;27;20199;-86
2022/04/15 02:13:41;;;;;;;7.35;4.38;;;;;;;7.16;100.00;93571.47;2122414;28;19950;-90
2022/04/15 02:14:42;;;;;;;7.47;5.05;;;;;;;7.08;100.00;93570.72;2105512;28;20086;-89
2022/04/15 02:15:43;;;;;;;6.65;5.43;;;;;;;7.03;100.00;93585.16;2113993;27;20043;-88
2022/04/15 02:16:46;;;;;;;7.57;5.75;;;;;;;7.01;100.00;93576.78;2122349;28;20019;-89
2022/04/15 02:17:47;;;;;;;8.23;5.57;;;;;;;7.04;100.00;93576.03;2114216;28;20073;-88
2022/04/15 02:18:48;;;;;;;7.88;5.38;;;;;;;6.99;100.00;93571.09;2114036;28;20024;-86
2022/04/15 02:19:50;;;;;;;5.57;5.07;;;;;;;6.97;100.00;93570.69;2114173;28;20023;-88
2022/04/15 02:20:52;;;;;;;6.97;5.45;;;;;;;6.99;100.00;93570.34;2114199;28;20024;-89
2022/04/15 02:21:53;;;;;;;7.60;5.18;;;;;;;7.00;100.00;93577.16;2122808;27;20111;-88
2022/04/15 02:22:54;;;;;;;6.57;5.38;;;;;;;6.90;100.00;93583.25;2122556;28;20081;-88
2022/04/15 02:23:55;;;;;;;5.75;5.13;;;;;;;6.96;100.00;93576.41;2122444;28;20526;-86
2022/04/15 02:24:56;;;;;;;7.97;5.53;;;;;;;6.94;100.00;93574.13;2122300;27;20491;-87
2022/04/15 02:25:57;;;;;;;5.68;4.95;;;;;;;6.90;100.00;93584.00;2113785;28;20028;-88
2022/04/15 02:26:58;;;;;;;6.75;5.22;;;;;;;6.89;100.00;93584.38;2122528;28;20403;-86
2022/04/15 02:27:59;;;;;;;7.90;5.43;;;;;;;6.86;100.00;93579.84;2119642;28;20022;-85
2022/04/15 02:29:00;;;;;;;8.02;5.55;;;;;;;6.80;100.00;93582.88;2111196;28;20020;-89
2022/04/15 02:30:01;;;;;;;7.43;4.82;;;;;;;6.86;100.00;93582.50;2111089;28;20051;-88
2022/04/15 02:31:02;;;;;;;7.20;5.20;;;;;;;6.86;100.00;93585.16;2111537;28;20025;-88
2022/04/15 02:32:04;;;;;;;5.60;4.70;;;;;;;6.87;100.00;93584.75;2120391;28;20487;-87
2022/04/15 02:33:10;;;;;;;6.25;4.85;;;;;;;6.89;100.00;93574.53;2119928;28;20012;-87
2022/04/15 02:34:11;;;;;;;6.05;5.15;;;;;;;6.91;100.00;93580.22;2113032;28;20024;-87
2022/04/15 02:35:12;;;;;;;9.27;5.30;;;;;;;6.90;100.00;93576.03;2119700;28;20031;-86
2022/04/15 02:36:13;;;;;;;6.88;5.68;;;;;;;6.90;100.00;93577.94;2119848;28;20081;-87
2022/04/15 02:37:14;;;;;;;6.70;5.15;;;;;;;6.81;100.00;93584.41;2116199;28;20409;-86
2022/04/15 02:38:16;;;;;;;8.30;5.50;;;;;;;6.89;100.00;93571.09;2111483;28;20024;-88
2022/04/15 02:39:17;;;;;;;10.20;5.60;;;;;;;6.93;100.00;93577.16;2115502;28;20024;-88
2022/04/15 02:40:17;;;;;;;7.55;6.28;;;;;;;6.99;100.00;93573.75;2105811;28;20823;-87
2022/04/15 02:41:19;;;;;;;9.93;6.57;;;;;;;6.86;100.00;93577.94;2106113;28;20032;-87
2022/04/15 02:42:20;;;;;;;6.30;5.50;;;;;;;6.85;100.00;93567.66;2114499;28;20020;-89
2022/04/15 02:43:25;;;;;;;7.93;5.85;;;;;;;6.82;100.00;93569.22;2108447;28;20016;-88
2022/04/15 02:44:26;;;;;;;8.38;6.13;;;;;;;6.80;100.00;93571.47;2114610;28;20048;-89
2022/04/15 02:45:31;;;;;;;8.63;5.40;;;;;;;6.83;100.00;93573.38;2122624;27;20023;-88
2022/04/15 02:46:32;;;;;;;8.43;6.28;;;;;;;6.81;100.00;93573.75;2114141;28;20073;-89
2022/04/15 02:47:33;;;;;;;8.65;6.95;;;;;;;6.88;100.00;93575.66;2113700;28;20043;-88
2022/04/15 02:48:34;;;;;;;11.05;6.60;;;;;;;6.81;100.00;93576.41;2104980;28;20031;-87
2022/04/15 02:49:36;;;;;;;9.70;6.85;;;;;;;6.87;100.00;93578.69;2096976;28;20048;-88
2022/04/15 02:50:37;;;;;;;8.00;6.53;;;;;;;6.92;100.00;93570.34;2105059;28;20024;-87
2022/04/15 02:51:38;;;;;;;12.05;6.93;;;;;;;7.00;100.00;93574.50;2105528;28;20505;-88
2022/04/15 02:52:40;;;;;;;11.38;7.13;;;;;;;7.08;100.00;93573.38;2113791;28;20023;-88
2022/04/15 02:53:41;;;;;;;9.90;6.68;;;;;;;7.03;100.00;93579.06;2105201;28;20023;-87
2022/04/15 02:54:42;;;;;;;8.20;6.53;;;;;;;7.09;100.00;93582.84;2096929;28;20025;-87
2022/04/15 02:55:43;;;;;;;10.10;5.95;;;;;;;7.04;100.00;93578.69;2109557;28;20066;-88
2022/04/15 02:56:44;;;;;;;10.85;6.93;;;;;;;7.01;100.00;93571.47;2113506;28;20107;-87
2022/04/15 02:57:45;;;;;;;9.52;5.68;;;;;;;7.01;100.00;93576.78;2121972;27;20027;-89
2022/04/15 02:58:46;;;;;;;11.10;6.05;;;;;;;7.08;100.00;93576.03;2113527;28;20034;-87
2022/04/15 02:59:47;;;;;;;8.75;6.85;;;;;;;7.06;100.00;93581.69;2096687;28;20025;-88
2022/04/15 03:00:48;;;;;;;6.43;5.65;;;;;;;7.05;100.00;93582.84;2105027;28;20029;-87
2022/04/15 03:01:49;;;;;;;7.63;6.30;;;;;;;7.16;100.00;93580.19;2104983;28;20020;-88
2022/04/15 03:02:50;;;;;;;9.20;6.97;;;;;;;7.18;100.00;93575.25;2113543;28;20015;-89
2022/04/15 03:03:51;;;;;;;9.73;6.55;;;;;;;7.10;100.00;93579.03;2105218;28;20396;-88
2022/04/15 03:04:52;;;;;;;7.60;6.20;;;;;;;7.03;100.00;93584.38;2105099;28;20027;-87
2022/04/15 03:05:53;;;;;;;10.68;6.07;;;;;;;7.04;100.00;93581.34;2105156;28;20026;-86
2022/04/15 03:06:54;;;;;;;10.93;6.57;;;;;;;7.06;100.00;93581.69;2105086;28;20393;-89
2022/04/15 03:07:56;;;;;;;7.30;5.88;;;;;;;7.08;100.00;93586.66;2104903;28;20036;-87
2022/04/15 03:08:57;;;;;;;12.90;6.72;;;;;;;7.08;100.00;93586.66;2096563;28;20021;-88
2022/04/15 03:09:58;;;;;;;6.70;6.00;;;;;;;7.12;100.00;93582.09;2096793;28;20025;-87
2022/04/15 03:11:00;;;;;;;7.15;5.78;;;;;;;7.18;100.00;93585.13;2103223;28;20115;-88
2022/04/15 03:12:01;;;;;;;9.00;6.05;;;;;;;7.11;100.00;93587.78;2096497;28;20025;-88
2022/04/15 03:13:03;;;;;;;8.18;6.10;;;;;;;7.18;100.00;93577.16;2088275;28;20025;-87
2022/04/15 03:14:10;;;;;;;7.15;6.25;;;;;;;7.16;100.00;93576.78;2088926;28;20029;-87
2022/04/15 03:15:11;;;;;;;8.68;6.18;;;;;;;7.18;100.00;93580.56;2098116;28;20032;-88
2022/04/15 03:16:12;;;;;;;7.68;6.43;;;;;;;7.16;100.00;93580.19;2096499;28;20628;-88
2022/04/15 03:17:13;;;;;;;7.97;5.85;;;;;;;7.18;100.00;93577.16;2104095;28;20050;-87
2022/04/15 03:18:14;;;;;;;7.63;6.40;;;;;;;7.16;100.00;93584.75;2096674;28;20024;-87
2022/04/15 03:19:15;;;;;;;9.20;6.72;;;;;;;7.13;100.00;93578.28;2105009;28;20024;-89
2022/04/15 03:20:16;;;;;;;10.20;6.68;;;;;;;7.10;100.00;93579.03;2105032;28;20028;-88
2022/04/15 03:21:16;;;;;;;7.03;5.85;;;;;;;7.05;100.00;93582.84;2096544;28;20087;-89
2022/04/15 03:22:17;;;;;;;9.95;6.40;;;;;;;7.10;100.00;93583.59;2096619;28;20095;-87
2022/04/15 03:23:21;;;;;;;8.80;6.18;;;;;;;7.09;100.00;93580.19;2095550;28;20025;-87
2022/04/15 03:24:22;;;;;;;8.23;6.10;;;;;;;7.09;100.00;93576.78;2099446;28;20466;-89
2022/04/15 03:25:23;;;;;;;10.07;6.05;;;;;;;7.04;100.00;93581.34;2099348;28;20020;-88
2022/04/15 03:26:24;;;;;;;9.40;6.05;;;;;;;7.06;100.00;93581.69;2090945;28;20033;-86
2022/04/15 03:27:25;;;;;;;6.45;5.82;;;;;;;7.05;100.00;93580.19;2107801;28;20027;-86
2022/04/15 03:28:26;;;;;;;8.55;6.00;;;;;;;7.03;100.00;93579.81;2115933;28;20110;-88
2022/04/15 03:29:27;;;;;;;6.78;5.88;;;;;;;6.96;100.00;93579.06;2099227;28;20020;-88
2022/04/15 03:30:28;;;;;;;9.13;5.75;;;;;;;6.99;100.00;93573.00;2082729;28;20025;-88
2022/04/15 03:31:29;;;;;;;6.93;5.95;;;;;;;6.98;100.00;93577.56;2082648;28;20104;-88
2022/04/15 03:32:30;;;;;;;6.63;5.75;;;;;;;6.91;100.00;93576.78;2082731;28;20024;-87
2022/04/15 03:33:32;;;;;;;7.43;5.90;;;;;;;6.89;100.00;93579.84;2091117;28;20056;-89
2022/04/15 03:34:43;;;;;;;6.78;5.45;;;;;;;6.90;100.00;93580.59;2099424;28;20027;-87
2022/04/15 03:35:44;;;;;;;7.40;5.38;;;;;;;6.89;100.00;93579.84;2099273;28;20025;-88
2022/04/15 03:36:45;;;;;;;7.30;5.45;;;;;;;6.90;100.00;93580.59;2090841;28;20027;-89
2022/04/15 03:37:50;;;;;;;6.55;5.47;;;;;;;6.86;100.00;93575.28;2099107;28;20025;-87
2022/04/15 03:38:51;;;;;;;5.63;5.13;;;;;;;6.82;100.00;93587.81;2083836;28;20033;-87
2022/04/15 03:39:52;;;;;;;6.13;5.20;;;;;;;6.82;100.00;93585.91;2090892;28;20108;-89
2022/04/15 03:40:53;;;;;;;7.45;4.95;;;;;;;6.81;100.00;93579.06;2090767;28;20021;-86
2022/04/15 03:41:54;;;;;;;6.53;5.35;;;;;;;6.89;100.00;93585.16;2090939;28;20075;-88
2022/04/15 03:42:56;;;;;;;7.15;5.38;;;;;;;6.89;100.00;93587.81;2091039;28;20401;-86
2022/04/15 03:43:57;;;;;;;6.53;5.03;;;;;;;6.94;100.00;93587.44;2091226;28;20020;-87
2022/04/15 03:45:01;;;;;;;6.15;5.50;;;;;;;6.90;100.00;93583.25;2091020;28;20025;-87
2022/04/15 03:46:03;;;;;;;6.78;4.97;;;;;;;6.95;100.00;93586.28;2091912;28;20482;-87
2022/04/15 03:47:05;;;;;;;6.32;5.20;;;;;;;6.94;100.00;93584.78;2095746;28;20055;-87
2022/04/15 03:48:06;;;;;;;6.47;5.18;;;;;;;6.86;100.00;93585.16;2091143;28;20082;-88
2022/04/15 03:49:08;;;;;;;7.18;6.47;;;;;;;6.91;100.00;93587.44;2091007;28;20029;-89
2022/04/15 03:50:10;;;;;;;7.13;5.88;;;;;;;6.92;100.00;93584.38;2106558;28;20032;-87
2022/04/15 03:51:12;;;;;;;9.63;6.32;;;;;;;6.92;100.00;93583.63;2091073;28;20079;-88
2022/04/15 03:52:13;;;;;;;9.23;6.05;;;;;;;6.89;100.00;93589.69;2091208;28;20044;-88
2022/04/15 03:53:14;;;;;;;10.68;6.80;;;;;;;6.90;100.00;93585.91;2090890;28;20033;-87
2022/04/15 03:54:15;;;;;;;8.48;5.93;;;;;;;6.96;100.00;93590.44;2090825;28;20025;-89
2022/04/15 03:55:32;;;;;;;6.60;5.70;;;;;;;6.97;100.00;93591.22;2090897;28;20051;-87
2022/04/15 03:56:34;;;;;;;6.90;5.30;;;;;;;7.08;100.00;93594.63;2086811;28;20071;-89
2022/04/15 03:57:36;;;;;;;7.88;4.97;;;;;;;6.95;100.00;93590.84;2091135;28;20017;-89
2022/04/15 03:58:37;;;;;;;8.45;4.90;;;;;;;6.98;100.00;93590.06;2090940;28;20021;-88
2022/04/15 03:59:38;;;;;;;6.75;5.38;;;;;;;6.99;100.00;93594.25;2082591;28;20033;-88
2022/04/15 04:00:39;;;;;;;7.47;5.60;;;;;;;7.04;100.00;93586.66;2090497;28;20036;-88
2022/04/15 04:01:41;;;;;;;7.72;5.47;;;;;;;7.11;100.00;93593.09;2090794;28;20021;-88
2022/04/15 04:02:44;;;;;;;7.90;5.57;;;;;;;7.09;100.00;93593.47;2082792;28;20048;-88
2022/04/15 04:03:45;;;;;;;6.80;5.28;;;;;;;7.10;100.00;93595.00;2082826;28;20025;-88
2022/04/15 04:04:46;;;;;;;6.35;5.22;;;;;;;7.10;100.00;93588.94;2082610;28;20021;-88
2022/04/15 04:05:47;;;;;;;6.47;5.13;;;;;;;7.05;100.00;93592.72;2082625;28;20021;-86
2022/04/15 04:06:48;;;;;;;5.93;5.32;;;;;;;7.04;100.00;93597.28;2090484;28;20401;-88
2022/04/15 04:07:49;;;;;;;5.47;4.97;;;;;;;7.05;100.00;93598.81;2099054;28;20025;-89
2022/04/15 04:08:50;;;;;;;8.63;5.47;;;;;;;7.08;100.00;93594.63;2107395;28;20477;-86
2022/04/15 04:09:51;;;;;;;7.32;5.30;;;;;;;7.05;100.00;93592.72;2098969;28;20024;-87
2022/04/15 04:10:52;;;;;;;7.45;5.00;;;;;;;7.05;100.00;93596.13;2088001;28;20024;-88
2022/04/15 04:11:53;;;;;;;6.40;5.63;;;;;;;7.13;100.00;93593.47;2098654;28;20470;-87
2022/04/15 04:12:54;;;;;;;8.32;5.10;;;;;;;7.15;100.00;93591.94;2090571;28;20048;-88
2022/04/15 04:13:55;;;;;;;6.78;5.18;;;;;;;7.14;100.00;93598.41;2090773;28;20029;-89
2022/04/15 04:14:56;;;;;;;9.18;6.00;;;;;;;7.17;100.00;93596.91;2090786;28;20040;-89
2022/04/15 04:15:57;;;;;;;6.30;5.70;;;;;;;7.14;100.00;93590.44;2082313;28;20076;-89
2022/04/15 04:16:59;;;;;;;7.03;5.40;;;;;;;7.19;100.00;93599.94;2083920;28;20025;-89
2022/04/15 04:18:00;;;;;;;6.53;5.00;;;;;;;7.18;100.00;93591.19;2090796;28;20021;-87
2022/04/15 04:19:01;;;;;;;6.32;5.00;;;;;;;7.18;100.00;93595.75;2093396;28;20029;-89
2022/04/15 04:20:04;;;;;;;5.57;5.05;;;;;;;7.21;100.00;93595.00;2099135;28;20466;-87
2022/04/15 04:21:05;;;;;;;7.78;6.00;;;;;;;7.26;100.00;93600.69;2099015;28;20025;-87
2022/04/15 04:22:06;;;;;;;5.65;5.00;;;;;;;7.27;100.00;93591.56;2090758;28;20028;-88
2022/04/15 04:23:07;;;;;;;7.13;5.00;;;;;;;7.23;100.00;93592.72;2099028;28;20016;-87
2022/04/15 04:24:09;;;;;;;7.28;5.18;;;;;;;7.24;100.00;93597.66;2090827;28;20021;-88
2022/04/15 04:25:10;;;;;;;13.73;5.90;;;;;;;7.26;100.00;93598.03;2091046;28;20028;-91
2022/04/15 04:26:11;;;;;;;6.03;5.43;;;;;;;7.27;100.00;93594.22;2090739;28;20450;-89
2022/04/15 04:27:12;;;;;;;6.60;5.20;;;;;;;7.29;100.00;93602.59;2099067;28;20031;-89
2022/04/15 04:28:13;;;;;;;5.93;5.43;;;;;;;7.27;100.00;93602.19;2098841;28;20044;-88
2022/04/15 04:29:16;;;;;;;7.10;4.85;;;;;;;7.39;100.00;93603.72;2091159;28;20021;-88
2022/04/15 04:30:17;;;;;;;5.80;5.20;;;;;;;7.50;100.00;93603.66;2091176;28;20474;-89
2022/04/15 04:31:20;;;;;;;5.78;5.18;;;;;;;7.52;100.00;93599.50;2098802;28;20070;-90
2022/04/15 04:32:22;;;;;;;8.98;5.53;;;;;;;7.70;100.00;93596.03;2098887;28;20119;-88
2022/04/15 04:33:23;;;;;;;6.78;5.65;;;;;;;7.68;100.00;93593.75;2090607;28;20089;-88
2022/04/15 04:34:24;;;;;;;5.80;5.30;;;;;;;7.62;100.00;93597.19;2101962;28;20020;-88
2022/04/15 04:35:25;;;;;;;6.45;5.10;;;;;;;7.50;100.00;93596.44;2106460;28;20035;-88
2022/04/15 04:36:57;;;;;;;5.80;5.18;;;;;;;7.51;100.00;93597.22;2098390;28;20027;-87
2022/04/15 04:37:58;;;;;;;8.30;5.68;;;;;;;7.49;100.00;93604.81;2107161;28;20380;-88
2022/04/15 04:38:59;;;;;;;7.82;5.28;;;;;;;7.51;100.00;93600.66;2107162;28;20071;-87
2022/04/15 04:40:00;;;;;;;9.27;5.82;;;;;;;7.56;100.00;93604.81;2098816;28;20054;-88
2022/04/15 04:41:00;;;;;;;7.43;5.97;;;;;;;7.51;100.00;93605.22;2090476;28;20030;-89
2022/04/15 04:42:05;;;;;;;9.95;5.10;;;;;;;7.52;100.00;93602.16;2090681;28;20074;-88
2022/04/15 04:43:07;;;;;;;8.45;4.78;;;;;;;7.54;100.00;93610.50;2091463;28;20432;-87
2022/04/15 04:44:08;;;;;;;8.30;5.50;;;;;;;7.56;100.00;93605.56;2090578;28;20032;-88
2022/04/15 04:45:12;;;;;;;9.30;5.55;;;;;;;7.56;100.00;93608.22;2090516;28;20028;-89
2022/04/15 04:46:13;;;;;;;6.53;5.25;;;;;;;7.56;100.00;93602.91;2099031;28;20027;-88
2022/04/15 04:47:14;;;;;;;7.85;5.40;;;;;;;7.56;100.00;93608.22;2097916;28;20027;-88
2022/04/15 04:48:15;;;;;;;11.40;6.25;;;;;;;7.60;100.00;93604.81;2090281;28;20170;-90
2022/04/15 04:49:17;;;;;;;7.28;5.50;;;;;;;7.59;100.00;93601.38;2098733;28;20021;-88
2022/04/15 04:50:18;;;;;;;5.93;5.32;;;;;;;7.66;100.00;93608.59;2098704;28;20475;-89
2022/04/15 04:51:19;;;;;;;8.60;5.68;;;;;;;7.61;100.00;93608.97;2107044;28;20074;-88
2022/04/15 04:52:21;;;;;;;6.88;4.93;;;;;;;7.63;100.00;93610.09;2098528;28;20072;-88
2022/04/15 04:53:22;;;;;;;7.88;5.32;;;;;;;7.66;100.00;93609.34;2090592;28;20025;-88